Chuckey, Tennessee
Current Conditions -  °F | °C
As of 1:53 PM on Sunday 23 Nov 2014 (Local Time) from KTRI Reporting Station
Light Rain Light Rain  
Wind Chill: 55°   Ceiling: 10000
Heat Index: 55°   Visibility: 10mi
Dew Point: 51°   Wind: 5mph
Humidity: 86%   Direction: 80°E
Pressure: 29.89"   Gusts: NA
Location:  36.22°N, 82.69°W
Report Text: KTRI 231853Z 08004KT 10SM -RA BKN100 13/11 A2989 RMK AO2 SLP115 P0002 T01280106
Loading
Personal Weather Stations






























Interactive Weather Map New forecast layout! Learn more

10-Day Weather Forecast

Advertisements
Track Severe Weather on mobile